Meteo Giornale » Osservazioni meteo Ungheria » Budapest-Ferihegy

ore: 19:30 - Osservazioni Meteo Budapest-Ferihegy
Lat. 47° 26' N Lon. 19° 16' E Alt. 151 metri s.l.m.

sereno

25 °C

Sereno

Temp. 24 Ore

20 °C

28 °C

Nord-Ovest

16.7 Km/h

Dew point 9 °C

Umidità 36 %

Visibilità  10 Km

Il sole sorge alle ore 06:01

Il sole tramonta alle ore 19:24

Data e Ora Cielo e Fenomeni T °C DP °C Um. % Pres. hPa Vis. km Vento km/h
Oggi h: 19:30 sereno Sereno 25 9 36 1019 10 NO 16.7
Oggi h: 19:00 sereno Sereno 26 8 31 1019 10 O/NO 24
Oggi h: 18:30 sereno Sereno 26 8 31 1019 10 O/NO 22.2
Oggi h: 18:00 sereno Sereno 27 8 30 1019 10 NO 27.8
Oggi h: 17:30 sereno Sereno 27 8 30 1019 10 NO 27.8
Oggi h: 17:00 sereno Sereno 27 9 32 1019 10 NO 29.6
Oggi h: 16:30 sereno Sereno 28 8 28 1019 10 NO 24
Oggi h: 16:00 sereno Sereno 28 9 30 1019 10 O/NO 25.9
Oggi h: 15:30 sereno Sereno 28 9 30 1019 10 O/NO 22.2
Oggi h: 15:00 sereno Sereno 28 8 28 1019 10 O/NO 25.9
Oggi h: 14:30 sereno Sereno 28 9 30 1019 10 NO 25.9
Oggi h: 14:00 sereno Sereno 27 10 34 1019 10 O/NO 25.9
Oggi h: 13:30 sereno Sereno 27 10 34 1019 10 O/NO 25.9
Oggi h: 13:00 sereno Sereno 27 9 32 1019 10 O/NO 29.6
Oggi h: 12:30 sereno Sereno 27 10 34 1019 10 O/NO 25.9
Oggi h: 12:00 sereno Sereno 26 10 36 1019 10 O/NO 24
Oggi h: 11:30 sereno Sereno 26 10 36 1019 10 NO 24
Oggi h: 11:00 sereno Sereno 25 11 41 1020 10 NO 27.8
Oggi h: 10:30 sereno Sereno 26 10 36 1019 10 O/NO 24
Oggi h: 10:00 sereno Sereno 24 12 47 1019 10 O/NO 20.3
Oggi h: 09:30 sereno Sereno 24 13 50 1019 10 NO 16.7
Oggi h: 09:00 sereno Sereno 23 13 53 1019 10 NO 20.3
Oggi h: 08:30 sereno Sereno 23 12 49 1019 10 O/NO 22.2
Oggi h: 07:30 sereno Sereno 21 13 60 1018 10 N 3.7
Oggi h: 07:00 sereno Sereno 20 14 68 1018 10 O/NO 9.3
Oggi h: 06:30 sereno Sereno 20 13 64 1017 10 O/NO 11.1
Oggi h: 06:00 sereno Sereno 20 14 68 1017 10 NO 9.3
Oggi h: 05:30 sereno Sereno 21 14 64 1017 10 O/NO 9.3
Oggi h: 05:00 sereno Sereno 22 14 60 1016 10 O/SO 9.3
Oggi h: 04:30 sereno Sereno 21 14 64 1016 10 N/NO 7.4
Oggi h: 04:00 sereno Sereno 22 14 60 1016 10 O/NO 16.7
Oggi h: 03:30 sereno Sereno 22 14 60 1017 10 O/NO 24
Oggi h: 03:00 sereno Sereno 23 14 56 1017 10 O/NO 27.8
Oggi h: 02:30 molto_nuvoloso Molto Nuvoloso 24 15 57 1016 10 NO 25.9
Oggi h: 02:00 sereno Sereno 24 15 57 1016 10 NO 13
Oggi h: 01:30 molto_nuvoloso Molto Nuvoloso 24 15 57 1014 10 N/NO 16.7
Oggi h: 01:00 molto_nuvoloso Molto Nuvoloso 22 16 68 1015 10 N/NO 11.1
Oggi h: 00:41 nuvoloso_piovaschi Pioggia Temporale nelle vicinanze 22 16 68 1015 10 N 9.3
Oggi h: 00:30 nuvoloso_temporali Temporale 21 16 73 1015 7 O/NO 31.5
Oggi h: 00:12 nuvoloso_temporali Temporale 25 14 50 1015 5 O/NO 24
Oggi h: 00:00 nuvoloso_temporali Temporale 25 12 44 1015 7 O/NO 16.7
Ieri h: 23:38 coperto_temporali Temporale 25 12 44 1015 10 NO 16.7
Ieri h: 23:30 nuvoloso Nuvoloso 23 12 49 1014 10 NO 14.8
Ieri h: 23:17 nuvoloso Nuvoloso 24 12 47 1014 10 NO 14.8
Ieri h: 23:00 sereno Sereno 23 12 49 1014 10 NO 11.1
Ieri h: 22:30 sereno Sereno 25 12 44 1014 10 N 7.4
Ieri h: 22:00 sereno Sereno 25 11 41 1014 10 NO 16.7
Ieri h: 21:30 sereno Sereno 25 12 44 1014 10 NO 11.1
Ieri h: 21:00 sereno Sereno 26 13 44 1014 10 NO 9.3